createdAt,value
2018-09-12T00:00:48.846Z,13.00
2018-09-12T00:03:17.393Z,12.90
2018-09-12T00:05:45.929Z,13.00
2018-09-12T00:08:14.672Z,12.90
2018-09-12T00:10:43.379Z,13.00
2018-09-12T00:13:11.922Z,13.00
2018-09-12T00:15:40.586Z,12.80
2018-09-12T00:18:09.203Z,12.70
2018-09-12T00:20:37.894Z,12.70
2018-09-12T00:23:06.529Z,12.50
2018-09-12T00:25:35.389Z,12.60
2018-09-12T00:28:04.065Z,12.50
2018-09-12T00:30:32.566Z,12.60
2018-09-12T00:33:01.401Z,12.60
2018-09-12T00:35:29.956Z,12.80
2018-09-12T00:37:58.466Z,12.80
2018-09-12T00:40:27.248Z,12.80
2018-09-12T00:42:55.938Z,12.70
2018-09-12T00:48:00.308Z,12.50
2018-09-12T00:50:29.006Z,12.40
2018-09-12T00:52:57.536Z,12.30
2018-09-12T00:55:26.058Z,12.30
2018-09-12T00:57:54.640Z,12.30
2018-09-12T01:00:23.575Z,12.40
2018-09-12T01:02:52.202Z,12.40
2018-09-12T01:05:20.772Z,12.40
2018-09-12T01:07:49.681Z,12.40
2018-09-12T01:10:18.263Z,12.40
2018-09-12T01:12:47.227Z,12.50
2018-09-12T01:15:16.582Z,12.30
2018-09-12T01:17:45.247Z,12.20
2018-09-12T01:20:13.732Z,12.10
2018-09-12T01:22:42.298Z,12.20
2018-09-12T01:25:11.256Z,12.30
2018-09-12T01:27:39.814Z,12.30
2018-09-12T01:30:09.815Z,12.30
2018-09-12T01:32:38.605Z,12.40
2018-09-12T01:35:07.330Z,12.20
2018-09-12T01:37:35.852Z,12.10
2018-09-12T01:40:04.569Z,12.00
2018-09-12T01:42:33.091Z,12.00
2018-09-12T01:45:01.640Z,11.90
2018-09-12T01:47:30.371Z,11.90
2018-09-12T01:49:58.916Z,11.80
2018-09-12T01:52:27.498Z,11.80
2018-09-12T01:54:56.008Z,11.80
2018-09-12T01:57:24.588Z,11.80
2018-09-12T01:59:53.228Z,11.80
2018-09-12T02:02:21.831Z,11.70
2018-09-12T02:04:50.438Z,11.70
2018-09-12T02:07:19.190Z,11.80
2018-09-12T02:09:47.983Z,11.80
2018-09-12T02:12:16.579Z,11.90
2018-09-12T02:14:45.414Z,11.90
2018-09-12T02:17:14.138Z,11.90
2018-09-12T02:19:43.046Z,11.90
2018-09-12T02:22:11.574Z,11.80
2018-09-12T02:24:40.503Z,11.90
2018-09-12T02:27:09.053Z,11.80
2018-09-12T02:29:37.633Z,11.70
2018-09-12T02:32:06.286Z,11.60
2018-09-12T02:34:34.973Z,11.60
2018-09-12T02:37:03.543Z,11.60
2018-09-12T02:39:32.263Z,11.70
2018-09-12T02:42:01.067Z,11.70
2018-09-12T02:44:32.990Z,11.70
2018-09-12T02:47:01.530Z,11.60
2018-09-12T02:49:30.053Z,11.50
2018-09-12T02:51:59.327Z,11.40
2018-09-12T02:54:28.037Z,11.40
2018-09-12T02:56:56.918Z,11.50
2018-09-12T02:59:25.577Z,11.40
2018-09-12T03:01:54.216Z,11.40
2018-09-12T03:04:22.881Z,11.40
2018-09-12T03:06:51.422Z,11.30
2018-09-12T03:09:19.958Z,11.40
2018-09-12T03:11:49.144Z,11.40
2018-09-12T03:14:17.993Z,11.40
2018-09-12T03:16:46.611Z,11.50
2018-09-12T03:19:15.256Z,11.50
2018-09-12T03:21:43.859Z,11.30
2018-09-12T03:24:12.629Z,11.20
2018-09-12T03:26:41.771Z,11.20
2018-09-12T03:29:10.500Z,11.20
2018-09-12T03:31:39.073Z,11.20
2018-09-12T03:34:08.135Z,11.10
2018-09-12T03:36:37.103Z,11.00
2018-09-12T03:39:08.981Z,11.10
2018-09-12T03:41:37.841Z,11.30
2018-09-12T03:44:06.723Z,11.20
2018-09-12T03:46:35.414Z,11.00
2018-09-12T03:49:04.358Z,11.00
2018-09-12T03:51:32.880Z,10.90
2018-09-12T03:54:01.582Z,11.00
2018-09-12T03:56:30.197Z,11.00
2018-09-12T03:58:58.883Z,11.00
2018-09-12T04:01:27.741Z,11.00
2018-09-12T04:03:56.303Z,11.00
2018-09-12T04:06:24.978Z,10.90
2018-09-12T04:08:53.611Z,10.80
2018-09-12T04:11:22.173Z,10.80
2018-09-12T04:13:51.156Z,10.80
2018-09-12T04:16:19.994Z,10.70
2018-09-12T04:18:48.748Z,10.80
2018-09-12T04:21:17.668Z,10.80
2018-09-12T04:23:46.669Z,10.70
2018-09-12T04:26:15.513Z,10.70
2018-09-12T04:28:44.672Z,10.70
2018-09-12T04:31:13.254Z,10.60
2018-09-12T04:33:41.779Z,10.60
2018-09-12T04:36:10.337Z,10.60
2018-09-12T04:38:38.925Z,10.60
2018-09-12T04:41:07.585Z,10.60
2018-09-12T04:43:36.343Z,10.60
2018-09-12T04:46:05.287Z,10.60
2018-09-12T04:48:34.217Z,10.60
2018-09-12T04:51:02.695Z,10.70
2018-09-12T04:53:31.388Z,10.50
2018-09-12T04:55:59.938Z,10.60
2018-09-12T04:58:28.489Z,10.50
2018-09-12T05:00:57.052Z,10.50
2018-09-12T05:03:25.678Z,10.50
2018-09-12T05:05:54.229Z,10.50
2018-09-12T05:08:22.742Z,10.50
2018-09-12T05:10:51.345Z,10.50
2018-09-12T05:13:19.959Z,10.50
2018-09-12T05:15:48.739Z,10.40
2018-09-12T05:18:17.438Z,10.40
2018-09-12T05:20:46.426Z,10.50
2018-09-12T05:23:15.070Z,10.50
2018-09-12T05:25:43.870Z,10.60
2018-09-12T05:28:12.584Z,10.60
2018-09-12T05:30:41.159Z,10.60
2018-09-12T05:33:09.811Z,10.60
2018-09-12T05:35:38.665Z,10.60
2018-09-12T05:38:07.235Z,10.60
2018-09-12T05:40:35.756Z,10.60
2018-09-12T05:43:04.496Z,10.70
2018-09-12T05:45:33.632Z,10.70
2018-09-12T05:48:02.245Z,10.80
2018-09-12T05:50:30.960Z,10.80
2018-09-12T05:52:59.896Z,10.90
2018-09-12T05:55:28.454Z,10.80
2018-09-12T05:57:56.969Z,10.90
2018-09-12T06:00:25.570Z,11.00
2018-09-12T06:02:54.166Z,11.10
2018-09-12T06:05:22.775Z,11.20
2018-09-12T06:07:51.726Z,11.40
2018-09-12T06:10:20.462Z,11.50
2018-09-12T06:12:49.304Z,11.50
2018-09-12T06:15:18.704Z,11.60
2018-09-12T06:17:47.275Z,11.70
2018-09-12T06:20:16.068Z,11.80
2018-09-12T06:22:44.939Z,11.90
2018-09-12T06:25:13.886Z,12.10
2018-09-12T06:27:42.426Z,12.10
2018-09-12T06:30:11.638Z,12.20
2018-09-12T06:32:40.171Z,12.30
2018-09-12T06:35:09.344Z,12.40
2018-09-12T06:37:38.000Z,12.50
2018-09-12T06:40:06.954Z,12.60
2018-09-12T06:42:35.520Z,12.70
2018-09-12T06:45:04.269Z,12.80
2018-09-12T06:47:33.391Z,12.90
2018-09-12T06:50:02.217Z,13.00
2018-09-12T06:52:30.851Z,13.10
2018-09-12T06:55:00.047Z,13.30
2018-09-12T06:57:28.672Z,13.40
2018-09-12T06:59:57.234Z,13.50
2018-09-12T07:02:26.119Z,13.60
2018-09-12T07:04:55.026Z,13.70
2018-09-12T07:07:23.735Z,13.80
2018-09-12T07:09:52.715Z,14.10
2018-09-12T07:12:21.443Z,14.20
2018-09-12T07:14:50.325Z,14.30
2018-09-12T07:17:19.250Z,14.40
2018-09-12T07:19:48.130Z,14.50
2018-09-12T07:22:17.014Z,14.60
2018-09-12T07:24:45.933Z,14.70
2018-09-12T07:27:14.685Z,14.80
2018-09-12T07:29:43.703Z,14.90
2018-09-12T07:32:12.901Z,15.00
2018-09-12T07:34:41.969Z,15.10
2018-09-12T07:37:11.007Z,15.30
2018-09-12T07:39:39.747Z,15.40
2018-09-12T07:42:08.360Z,15.60
2018-09-12T07:44:37.235Z,15.80
2018-09-12T07:47:06.494Z,16.00
2018-09-12T07:49:35.279Z,16.30
2018-09-12T07:52:03.927Z,16.40
2018-09-12T07:54:32.669Z,16.60
2018-09-12T07:57:01.567Z,16.80
2018-09-12T07:59:30.466Z,16.90
2018-09-12T08:01:59.368Z,17.10
2018-09-12T08:04:28.326Z,17.40
2018-09-12T08:06:57.224Z,17.80
2018-09-12T08:09:26.130Z,18.20
2018-09-12T08:11:55.419Z,18.50
2018-09-12T08:14:24.367Z,18.70
2018-09-12T08:16:53.685Z,18.80
2018-09-12T08:19:22.543Z,19.00
2018-09-12T08:21:51.557Z,19.30
2018-09-12T08:24:20.517Z,19.40
2018-09-12T08:26:49.522Z,19.60
2018-09-12T08:29:18.479Z,19.80
2018-09-12T08:31:47.587Z,19.90
2018-09-12T08:34:16.398Z,20.00
2018-09-12T08:36:45.402Z,20.10
2018-09-12T08:39:14.695Z,20.20
2018-09-12T08:41:43.424Z,20.30
2018-09-12T08:44:12.410Z,20.40
2018-09-12T08:46:41.013Z,20.50
2018-09-12T08:49:10.215Z,20.60
2018-09-12T08:51:39.335Z,20.70
2018-09-12T08:54:08.441Z,20.80
2018-09-12T08:56:37.596Z,20.90
2018-09-12T08:59:06.779Z,21.00
2018-09-12T09:01:35.738Z,21.00
2018-09-12T09:04:04.611Z,21.20
2018-09-12T09:06:33.198Z,21.40
2018-09-12T09:09:02.167Z,21.60
2018-09-12T09:11:30.938Z,21.60
2018-09-12T09:13:59.541Z,21.70
2018-09-12T09:16:28.583Z,21.90
2018-09-12T09:18:57.519Z,22.10
2018-09-12T09:21:26.566Z,22.20
2018-09-12T09:23:55.715Z,22.60
2018-09-12T09:26:24.568Z,22.70
2018-09-12T09:28:53.946Z,22.80
2018-09-12T09:31:22.624Z,22.80
2018-09-12T09:33:51.413Z,22.90
2018-09-12T09:36:20.921Z,23.10
2018-09-12T09:38:49.615Z,23.30
2018-09-12T09:41:18.399Z,23.20
2018-09-12T09:43:47.495Z,23.50
2018-09-12T09:46:16.573Z,23.90
2018-09-12T09:48:46.015Z,24.00
2018-09-12T09:51:15.361Z,23.70
2018-09-12T09:53:44.583Z,23.80
2018-09-12T09:56:13.768Z,24.10
2018-09-12T09:58:42.744Z,24.70
2018-09-12T10:01:17.023Z,25.10
2018-09-12T10:03:51.413Z,25.30
2018-09-12T10:06:24.486Z,26.00
2018-09-12T10:08:56.206Z,26.10
2018-09-12T10:11:25.141Z,26.10
2018-09-12T10:13:53.950Z,26.30
2018-09-12T10:16:23.221Z,25.60
2018-09-12T10:18:52.008Z,25.60
2018-09-12T10:21:20.727Z,26.20
2018-09-12T10:23:49.486Z,26.80
2018-09-12T10:26:18.577Z,27.10
2018-09-12T10:28:47.508Z,27.30
2018-09-12T10:31:16.171Z,27.90
2018-09-12T10:33:45.217Z,28.40
2018-09-12T10:36:14.074Z,29.50
2018-09-12T10:38:42.823Z,29.00
2018-09-12T10:41:11.570Z,29.30
2018-09-12T10:43:40.385Z,28.60
2018-09-12T10:46:09.198Z,29.20
2018-09-12T10:48:37.880Z,29.10
2018-09-12T10:51:07.280Z,28.50
2018-09-12T10:53:35.936Z,27.40
2018-09-12T10:56:04.804Z,27.20
2018-09-12T10:58:34.195Z,27.70
2018-09-12T11:01:03.226Z,28.10
2018-09-12T11:03:32.325Z,29.50
2018-09-12T11:06:01.153Z,29.80
2018-09-12T11:08:30.066Z,30.30
2018-09-12T11:10:58.747Z,30.30
2018-09-12T11:13:27.602Z,30.30
2018-09-12T11:15:56.670Z,30.40
2018-09-12T11:18:25.435Z,31.10
2018-09-12T11:20:54.089Z,31.10
2018-09-12T11:23:22.947Z,30.60
2018-09-12T11:25:51.825Z,30.90
2018-09-12T11:28:20.590Z,30.50
2018-09-12T11:30:49.596Z,30.10
2018-09-12T11:33:18.671Z,30.40
2018-09-12T11:35:48.020Z,31.30
2018-09-12T11:38:17.007Z,30.70
2018-09-12T11:40:46.083Z,30.50
2018-09-12T11:43:14.995Z,30.20
2018-09-12T11:45:43.510Z,28.60
2018-09-12T11:48:12.432Z,27.50
2018-09-12T11:50:41.694Z,26.60
2018-09-12T11:53:10.253Z,27.00
2018-09-12T11:55:39.336Z,27.60
2018-09-12T11:58:08.427Z,28.30
2018-09-12T12:00:37.387Z,28.00
2018-09-12T12:03:06.274Z,27.80
2018-09-12T12:05:35.324Z,29.20
2018-09-12T12:08:04.319Z,29.70
2018-09-12T12:10:33.527Z,29.50
2018-09-12T12:13:02.260Z,30.40
2018-09-12T12:15:31.094Z,31.40
2018-09-12T12:18:00.586Z,31.80
2018-09-12T12:20:29.592Z,32.50
2018-09-12T12:22:58.418Z,32.50
2018-09-12T12:25:27.343Z,32.20
2018-09-12T12:27:56.123Z,32.70
2018-09-12T12:30:25.294Z,32.30
2018-09-12T12:32:54.116Z,32.60
2018-09-12T12:35:23.190Z,33.70
2018-09-12T12:37:52.634Z,34.20
2018-09-12T12:40:21.513Z,33.80
2018-09-12T12:42:50.411Z,33.30
2018-09-12T12:45:19.361Z,33.60
2018-09-12T12:47:48.337Z,34.00
2018-09-12T12:50:17.175Z,35.10
2018-09-12T12:52:46.713Z,35.50
2018-09-12T12:55:15.798Z,35.20
2018-09-12T12:57:44.758Z,35.30
2018-09-12T13:00:13.666Z,35.70
2018-09-12T13:02:42.758Z,36.20
2018-09-12T13:05:12.056Z,35.80
2018-09-12T13:07:41.454Z,35.00
2018-09-12T13:10:10.624Z,33.60
2018-09-12T13:12:39.728Z,34.00
2018-09-12T13:15:08.935Z,34.30
2018-09-12T13:17:37.719Z,34.90
2018-09-12T13:20:07.396Z,35.50
2018-09-12T13:22:36.529Z,35.80
2018-09-12T13:25:05.675Z,35.50
2018-09-12T13:27:34.716Z,35.70
2018-09-12T13:30:03.636Z,35.20
2018-09-12T13:32:32.877Z,34.80
2018-09-12T13:35:01.786Z,35.80
2018-09-12T13:37:30.712Z,37.00
2018-09-12T13:39:59.596Z,36.10
2018-09-12T13:42:28.310Z,36.50
2018-09-12T13:44:57.267Z,36.10
2018-09-12T13:47:26.280Z,35.30
2018-09-12T13:49:55.477Z,35.00
2018-09-12T13:52:24.722Z,34.80
2018-09-12T13:54:53.618Z,35.40
2018-09-12T13:57:22.672Z,35.30
2018-09-12T13:59:51.591Z,36.30
2018-09-12T14:02:20.385Z,36.90
2018-09-12T14:04:49.704Z,37.30
2018-09-12T14:07:18.503Z,37.50
2018-09-12T14:09:47.463Z,36.40
2018-09-12T14:12:16.343Z,34.40
2018-09-12T14:14:45.184Z,32.00
2018-09-12T14:17:14.138Z,31.10
2018-09-12T14:19:43.278Z,31.00
2018-09-12T14:22:12.555Z,31.40
2018-09-12T14:24:41.798Z,30.80
2018-09-12T14:27:10.454Z,29.70
2018-09-12T14:29:39.469Z,28.80
2018-09-12T14:32:08.597Z,28.30
2018-09-12T14:34:37.730Z,27.50
2018-09-12T14:37:06.665Z,27.10
2018-09-12T14:39:35.676Z,26.70
2018-09-12T14:42:04.377Z,26.40
2018-09-12T14:44:33.261Z,26.00
2018-09-12T14:47:02.228Z,26.00
2018-09-12T14:49:31.195Z,26.50
2018-09-12T14:52:00.253Z,26.20
2018-09-12T14:54:29.328Z,26.00
2018-09-12T14:56:58.204Z,25.60
2018-09-12T14:59:26.858Z,25.20
2018-09-12T15:01:55.812Z,25.10
2018-09-12T15:04:24.676Z,24.70
2018-09-12T15:06:53.573Z,24.00
2018-09-12T15:09:22.262Z,23.90
2018-09-12T15:11:51.216Z,23.70
2018-09-12T15:14:20.166Z,23.90
2018-09-12T15:16:49.395Z,24.40
2018-09-12T15:19:18.620Z,24.40
2018-09-12T15:21:47.803Z,23.70
2018-09-12T15:24:16.654Z,23.80
2018-09-12T15:26:45.608Z,24.10
2018-09-12T15:29:14.501Z,23.70
2018-09-12T15:31:44.070Z,23.40
2018-09-12T15:34:13.110Z,23.00
2018-09-12T15:36:42.097Z,22.50
2018-09-12T15:39:12.066Z,22.00
2018-09-12T15:41:41.535Z,21.50
2018-09-12T15:44:10.476Z,21.50
2018-09-12T15:46:39.311Z,21.10
2018-09-12T15:49:08.063Z,20.90
2018-09-12T15:51:36.998Z,21.00
2018-09-12T15:54:05.906Z,20.70
2018-09-12T15:56:35.023Z,20.60
2018-09-12T15:59:04.102Z,20.50
2018-09-12T16:01:33.077Z,20.30
2018-09-12T16:04:02.156Z,20.30
2018-09-12T16:06:30.945Z,20.40
2018-09-12T16:08:59.640Z,20.30
2018-09-12T16:11:28.485Z,20.40
2018-09-12T16:13:57.222Z,20.20
2018-09-12T16:16:25.988Z,19.90
2018-09-12T16:18:55.065Z,19.70
2018-09-12T16:21:23.699Z,19.80
2018-09-12T16:23:52.333Z,19.80
2018-09-12T16:26:21.377Z,19.70
2018-09-12T16:28:50.267Z,19.60
2018-09-12T16:31:19.206Z,19.40
2018-09-12T16:33:48.211Z,19.20
2018-09-12T16:36:17.280Z,19.10
2018-09-12T16:38:46.477Z,19.20
2018-09-12T16:41:15.367Z,18.90
2018-09-12T16:43:44.334Z,18.90
2018-09-12T16:46:13.647Z,18.70
2018-09-12T16:48:42.625Z,18.60
2018-09-12T16:51:11.399Z,18.50
2018-09-12T16:53:40.413Z,18.50
2018-09-12T16:56:09.696Z,18.50
2018-09-12T16:58:38.625Z,18.30
2018-09-12T17:01:07.956Z,18.40
2018-09-12T17:03:37.124Z,18.20
2018-09-12T17:06:06.404Z,18.20
2018-09-12T17:08:35.819Z,18.10
2018-09-12T17:11:05.006Z,18.20
2018-09-12T17:13:34.271Z,18.30
2018-09-12T17:16:03.451Z,18.00
2018-09-12T17:18:32.203Z,18.20
2018-09-12T17:21:01.878Z,18.40
2018-09-12T17:23:30.708Z,18.40
2018-09-12T17:25:59.639Z,18.20
2018-09-12T17:28:28.781Z,18.10
2018-09-12T17:30:57.835Z,18.00
2018-09-12T17:33:27.993Z,17.80
2018-09-12T17:35:57.308Z,17.70
2018-09-12T17:38:26.387Z,17.60
2018-09-12T17:40:55.496Z,17.80
2018-09-12T17:43:24.442Z,17.60
2018-09-12T17:45:53.438Z,17.50
2018-09-12T17:48:22.176Z,17.50
2018-09-12T17:50:51.489Z,17.50
2018-09-12T17:53:20.368Z,17.70
2018-09-12T17:55:49.242Z,17.50
2018-09-12T17:58:18.197Z,17.40
2018-09-12T18:00:48.001Z,17.30
2018-09-12T18:03:17.473Z,17.50
2018-09-12T18:05:46.902Z,17.40
2018-09-12T18:08:15.803Z,17.30
2018-09-12T18:10:44.832Z,17.20
2018-09-12T18:13:13.426Z,17.30
2018-09-12T18:15:42.660Z,17.30
2018-09-12T18:18:11.500Z,17.20
2018-09-12T18:20:40.617Z,17.30
2018-09-12T18:23:09.531Z,17.40
2018-09-12T18:25:38.633Z,17.30
2018-09-12T18:28:07.668Z,17.30
2018-09-12T18:30:37.350Z,17.30
2018-09-12T18:33:06.244Z,17.30
2018-09-12T18:35:35.428Z,17.30
2018-09-12T18:38:04.743Z,17.10
2018-09-12T18:40:33.972Z,17.00
2018-09-12T18:43:03.127Z,17.10
2018-09-12T18:45:32.224Z,17.20
2018-09-12T18:48:01.257Z,17.20
2018-09-12T18:50:29.900Z,17.10
2018-09-12T18:52:59.042Z,17.10
2018-09-12T18:55:27.829Z,17.00
2018-09-12T18:57:56.935Z,17.00
2018-09-12T19:00:25.623Z,16.90
2018-09-12T19:02:54.414Z,16.90
2018-09-12T19:05:23.296Z,16.90
2018-09-12T19:07:52.242Z,17.00
2018-09-12T19:10:21.239Z,16.90
2018-09-12T19:12:50.076Z,16.90
2018-09-12T19:15:19.138Z,16.80
2018-09-12T19:17:48.084Z,16.80
2018-09-12T19:20:17.190Z,16.70
2018-09-12T19:22:46.308Z,16.50
2018-09-12T19:25:15.025Z,16.40
2018-09-12T19:27:44.011Z,16.40
2018-09-12T19:30:12.986Z,16.40
2018-09-12T19:32:41.835Z,16.30
2018-09-12T19:35:10.775Z,16.30
2018-09-12T19:37:40.089Z,16.40
2018-09-12T19:40:09.248Z,16.30
2018-09-12T19:42:38.688Z,16.30
2018-09-12T19:45:07.465Z,16.30
2018-09-12T19:47:36.586Z,16.30
2018-09-12T19:50:05.877Z,16.30
2018-09-12T19:52:34.637Z,16.40
2018-09-12T19:55:03.869Z,16.40
2018-09-12T19:57:33.024Z,16.40
2018-09-12T20:00:01.899Z,16.20
2018-09-12T20:02:33.297Z,16.20
2018-09-12T20:05:02.200Z,16.10
2018-09-12T20:07:32.255Z,16.10
2018-09-12T20:10:01.017Z,16.10
2018-09-12T20:12:29.982Z,16.30
2018-09-12T20:14:59.331Z,16.40
2018-09-12T20:17:28.187Z,16.40
2018-09-12T20:19:57.059Z,16.40
2018-09-12T20:22:26.023Z,16.30
2018-09-12T20:24:55.314Z,16.30
2018-09-12T20:27:24.246Z,16.30
2018-09-12T20:29:53.070Z,16.20
2018-09-12T20:32:21.865Z,16.40
2018-09-12T20:34:50.503Z,16.50
2018-09-12T20:37:19.398Z,14.40
2018-09-12T20:39:48.207Z,16.30
2018-09-12T20:42:17.013Z,16.20
2018-09-12T20:44:45.856Z,16.20
2018-09-12T20:47:14.557Z,16.10
2018-09-12T20:49:43.152Z,16.00
2018-09-12T20:52:11.792Z,16.10
2018-09-12T20:54:40.329Z,16.10
2018-09-12T20:57:09.184Z,16.10
2018-09-12T20:59:37.890Z,16.00
2018-09-12T21:02:06.804Z,16.00
2018-09-12T21:04:35.497Z,16.00
2018-09-12T21:07:04.339Z,16.00
2018-09-12T21:09:33.432Z,16.00
2018-09-12T21:12:02.162Z,16.00
2018-09-12T21:14:30.838Z,16.00
2018-09-12T21:16:59.804Z,16.00
2018-09-12T21:19:28.772Z,16.00
2018-09-12T21:21:57.309Z,16.00
2018-09-12T21:24:25.950Z,16.00
2018-09-12T21:26:54.903Z,16.00
2018-09-12T21:29:23.845Z,15.90
2018-09-12T21:31:52.432Z,15.90
2018-09-12T21:34:21.289Z,15.80
2018-09-12T21:36:49.882Z,15.70
2018-09-12T21:39:18.472Z,15.70
2018-09-12T21:41:47.414Z,15.70
2018-09-12T21:44:16.385Z,15.70
2018-09-12T21:46:45.158Z,15.80
2018-09-12T21:49:13.718Z,15.80
2018-09-12T21:51:42.286Z,15.90
2018-09-12T21:54:11.369Z,15.90
2018-09-12T21:56:41.842Z,15.90
2018-09-12T21:59:10.343Z,15.90
2018-09-12T22:01:38.871Z,15.70
2018-09-12T22:04:07.691Z,15.80
2018-09-12T22:06:36.443Z,15.80
2018-09-12T22:09:08.477Z,15.80
2018-09-12T22:11:37.049Z,16.00
2018-09-12T22:14:05.975Z,15.90
2018-09-12T22:16:34.662Z,15.80
2018-09-12T22:19:03.433Z,15.80
2018-09-12T22:21:32.046Z,15.70
2018-09-12T22:24:00.724Z,15.70
2018-09-12T22:26:29.547Z,15.70
2018-09-12T22:28:58.140Z,15.80
2018-09-12T22:31:26.923Z,15.80
2018-09-12T22:33:55.748Z,15.80
2018-09-12T22:36:24.355Z,15.80
2018-09-12T22:38:53.592Z,15.80
2018-09-12T22:41:22.276Z,15.70
2018-09-12T22:43:51.064Z,15.60
2018-09-12T22:46:19.947Z,15.70
2018-09-12T22:48:48.487Z,15.70
2018-09-12T22:51:17.409Z,15.60
2018-09-12T22:53:45.979Z,15.70
2018-09-12T22:56:14.530Z,15.60
2018-09-12T22:58:43.123Z,15.60
2018-09-12T23:01:11.699Z,15.70
2018-09-12T23:03:40.412Z,15.70
2018-09-12T23:06:09.212Z,15.70
2018-09-12T23:08:37.836Z,15.60
2018-09-12T23:11:06.809Z,15.60
2018-09-12T23:13:35.446Z,15.70
2018-09-12T23:16:04.078Z,15.60
2018-09-12T23:18:32.925Z,15.50
2018-09-12T23:21:01.761Z,15.50
2018-09-12T23:23:30.417Z,15.50
2018-09-12T23:25:59.113Z,15.40
2018-09-12T23:28:27.655Z,15.50
2018-09-12T23:30:56.461Z,15.60
2018-09-12T23:33:25.325Z,15.50
2018-09-12T23:35:53.949Z,15.50
2018-09-12T23:38:22.598Z,15.40
2018-09-12T23:40:51.485Z,15.40
2018-09-12T23:43:20.024Z,15.40
2018-09-12T23:45:48.640Z,15.50
2018-09-12T23:48:17.237Z,15.40
2018-09-12T23:50:45.828Z,15.40
2018-09-12T23:53:14.669Z,15.50
2018-09-12T23:55:43.540Z,15.40
2018-09-12T23:58:12.211Z,15.40
